Terminal Aerodrome Forecast
Issued by NWS

Home | Current Version | Previous Version | Text Only | Print | Product List | Glossary On
Versions: 1 2 3 4 5 6 7 8 9 10 11 12 13
000
FTUS46 KSEW 270500
TAFPAE
TAF
KPAE 270536Z 2706/2806 18012KT P6SM BKN030 OVC040
     FM271200 18008KT P6SM SCT030 OVC040
     FM271800 18008KT P6SM SCT050 BKN100
     FM272100 25006KT P6SM SCT100=

USA.gov is the U.S. government's official web portal to all federal, state and local government web resources and services.